sensor_id;sensor_type;location;lat;lon;timestamp;temperature;humidity
75719;DHT22;64340;48.534;-3.036;2023-07-29T00:00:43;21.50;74.70
75719;DHT22;64340;48.534;-3.036;2023-07-29T00:03:08;21.50;75.00
75719;DHT22;64340;48.534;-3.036;2023-07-29T00:05:34;21.50;74.80
75719;DHT22;64340;48.534;-3.036;2023-07-29T00:08:00;21.50;74.80
75719;DHT22;64340;48.534;-3.036;2023-07-29T00:10:26;21.50;74.70
75719;DHT22;64340;48.534;-3.036;2023-07-29T00:12:52;21.50;75.00
75719;DHT22;64340;48.534;-3.036;2023-07-29T00:15:18;21.50;75.00
75719;DHT22;64340;48.534;-3.036;2023-07-29T00:17:43;21.50;75.10
75719;DHT22;64340;48.534;-3.036;2023-07-29T00:20:09;21.50;75.20
75719;DHT22;64340;48.534;-3.036;2023-07-29T00:22:34;21.40;74.90
75719;DHT22;64340;48.534;-3.036;2023-07-29T00:25:00;21.40;75.00
75719;DHT22;64340;48.534;-3.036;2023-07-29T00:27:26;21.40;75.10
75719;DHT22;64340;48.534;-3.036;2023-07-29T00:29:51;21.40;74.90
75719;DHT22;64340;48.534;-3.036;2023-07-29T00:32:17;21.40;75.10
75719;DHT22;64340;48.534;-3.036;2023-07-29T00:34:43;21.40;75.10
75719;DHT22;64340;48.534;-3.036;2023-07-29T00:37:09;21.40;75.00
75719;DHT22;64340;48.534;-3.036;2023-07-29T00:39:36;21.40;74.90
75719;DHT22;64340;48.534;-3.036;2023-07-29T00:42:02;21.40;75.00
75719;DHT22;64340;48.534;-3.036;2023-07-29T00:44:28;21.40;74.90
75719;DHT22;64340;48.534;-3.036;2023-07-29T00:46:53;21.40;74.90
75719;DHT22;64340;48.534;-3.036;2023-07-29T00:49:19;21.40;74.80
75719;DHT22;64340;48.534;-3.036;2023-07-29T00:51:46;21.40;74.80
75719;DHT22;64340;48.534;-3.036;2023-07-29T00:54:12;21.40;74.80
75719;DHT22;64340;48.534;-3.036;2023-07-29T00:56:37;21.40;74.70
75719;DHT22;64340;48.534;-3.036;2023-07-29T00:59:03;21.40;74.80
75719;DHT22;64340;48.534;-3.036;2023-07-29T01:01:30;21.40;74.80
75719;DHT22;64340;48.534;-3.036;2023-07-29T01:03:55;21.40;74.80
75719;DHT22;64340;48.534;-3.036;2023-07-29T01:09:07;21.30;74.80
75719;DHT22;64340;48.534;-3.036;2023-07-29T01:14:02;21.40;75.00
75719;DHT22;64340;48.534;-3.036;2023-07-29T01:16:42;21.40;75.00
75719;DHT22;64340;48.534;-3.036;2023-07-29T01:19:13;21.40;75.10
75719;DHT22;64340;48.534;-3.036;2023-07-29T01:21:44;21.30;75.30
75719;DHT22;64340;48.534;-3.036;2023-07-29T01:24:10;21.30;75.30
75719;DHT22;64340;48.534;-3.036;2023-07-29T01:26:35;21.30;75.30
75719;DHT22;64340;48.534;-3.036;2023-07-29T01:29:01;21.30;75.30
75719;DHT22;64340;48.534;-3.036;2023-07-29T01:31:34;21.40;75.20
75719;DHT22;64340;48.534;-3.036;2023-07-29T01:34:06;21.30;75.30
75719;DHT22;64340;48.534;-3.036;2023-07-29T01:36:35;21.30;75.30
75719;DHT22;64340;48.534;-3.036;2023-07-29T01:39:05;21.30;75.40
75719;DHT22;64340;48.534;-3.036;2023-07-29T01:41:30;21.30;75.30
75719;DHT22;64340;48.534;-3.036;2023-07-29T01:43:56;21.30;75.40
75719;DHT22;64340;48.534;-3.036;2023-07-29T01:46:22;21.30;75.30
75719;DHT22;64340;48.534;-3.036;2023-07-29T01:48:48;21.30;75.40
75719;DHT22;64340;48.534;-3.036;2023-07-29T01:51:13;21.30;75.20
75719;DHT22;64340;48.534;-3.036;2023-07-29T01:53:39;21.30;75.20
75719;DHT22;64340;48.534;-3.036;2023-07-29T01:56:05;21.30;75.20
75719;DHT22;64340;48.534;-3.036;2023-07-29T01:58:30;21.30;75.20
75719;DHT22;64340;48.534;-3.036;2023-07-29T02:00:56;21.30;75.30
75719;DHT22;64340;48.534;-3.036;2023-07-29T02:03:21;21.20;75.20
75719;DHT22;64340;48.534;-3.036;2023-07-29T02:05:47;21.20;75.20
75719;DHT22;64340;48.534;-3.036;2023-07-29T02:08:12;21.20;75.20
75719;DHT22;64340;48.534;-3.036;2023-07-29T02:10:39;21.20;75.20
75719;DHT22;64340;48.534;-3.036;2023-07-29T02:13:04;21.30;75.20
75719;DHT22;64340;48.534;-3.036;2023-07-29T02:15:30;21.20;75.10
75719;DHT22;64340;48.534;-3.036;2023-07-29T02:17:56;21.20;75.30
75719;DHT22;64340;48.534;-3.036;2023-07-29T02:20:21;21.20;75.20
75719;DHT22;64340;48.534;-3.036;2023-07-29T02:22:47;21.20;75.10
75719;DHT22;64340;48.534;-3.036;2023-07-29T02:25:14;21.20;75.20
75719;DHT22;64340;48.534;-3.036;2023-07-29T02:27:39;21.20;75.40
75719;DHT22;64340;48.534;-3.036;2023-07-29T02:30:05;21.20;75.50
75719;DHT22;64340;48.534;-3.036;2023-07-29T02:32:31;21.20;75.50
75719;DHT22;64340;48.534;-3.036;2023-07-29T02:34:56;21.20;75.40
75719;DHT22;64340;48.534;-3.036;2023-07-29T02:37:22;21.20;75.40
75719;DHT22;64340;48.534;-3.036;2023-07-29T02:39:49;21.20;75.30
75719;DHT22;64340;48.534;-3.036;2023-07-29T02:42:15;21.20;75.40
75719;DHT22;64340;48.534;-3.036;2023-07-29T02:44:40;21.20;75.40
75719;DHT22;64340;48.534;-3.036;2023-07-29T02:47:06;21.20;75.40
75719;DHT22;64340;48.534;-3.036;2023-07-29T02:49:32;21.10;75.40
75719;DHT22;64340;48.534;-3.036;2023-07-29T02:51:57;21.20;75.50
75719;DHT22;64340;48.534;-3.036;2023-07-29T02:54:23;21.20;75.50
75719;DHT22;64340;48.534;-3.036;2023-07-29T02:56:49;21.10;75.50
75719;DHT22;64340;48.534;-3.036;2023-07-29T02:59:15;21.10;75.40
75719;DHT22;64340;48.534;-3.036;2023-07-29T03:01:41;21.10;75.40
75719;DHT22;64340;48.534;-3.036;2023-07-29T03:04:07;21.10;75.40
75719;DHT22;64340;48.534;-3.036;2023-07-29T03:06:33;21.10;75.40
75719;DHT22;64340;48.534;-3.036;2023-07-29T03:08:59;21.10;75.40
75719;DHT22;64340;48.534;-3.036;2023-07-29T03:11:24;21.10;75.40
75719;DHT22;64340;48.534;-3.036;2023-07-29T03:13:50;21.10;75.50
75719;DHT22;64340;48.534;-3.036;2023-07-29T03:16:16;21.10;75.40
75719;DHT22;64340;48.534;-3.036;2023-07-29T03:18:42;21.10;75.40
75719;DHT22;64340;48.534;-3.036;2023-07-29T03:21:08;21.10;75.40
75719;DHT22;64340;48.534;-3.036;2023-07-29T03:23:34;21.10;75.40
75719;DHT22;64340;48.534;-3.036;2023-07-29T03:26:00;21.10;75.40
75719;DHT22;64340;48.534;-3.036;2023-07-29T03:28:26;21.10;75.40
75719;DHT22;64340;48.534;-3.036;2023-07-29T03:30:53;21.10;75.40
75719;DHT22;64340;48.534;-3.036;2023-07-29T03:33:18;21.10;75.40
75719;DHT22;64340;48.534;-3.036;2023-07-29T03:35:44;21.10;75.40
75719;DHT22;64340;48.534;-3.036;2023-07-29T03:38:13;21.10;75.40
75719;DHT22;64340;48.534;-3.036;2023-07-29T03:40:39;21.10;75.50
75719;DHT22;64340;48.534;-3.036;2023-07-29T03:43:05;21.10;75.50
75719;DHT22;64340;48.534;-3.036;2023-07-29T03:45:31;21.10;75.50
75719;DHT22;64340;48.534;-3.036;2023-07-29T03:47:56;21.10;75.40
75719;DHT22;64340;48.534;-3.036;2023-07-29T03:50:22;21.10;75.30
75719;DHT22;64340;48.534;-3.036;2023-07-29T03:52:47;21.10;75.50
75719;DHT22;64340;48.534;-3.036;2023-07-29T03:55:13;21.10;75.50
75719;DHT22;64340;48.534;-3.036;2023-07-29T03:57:39;21.10;75.50
75719;DHT22;64340;48.534;-3.036;2023-07-29T04:00:05;21.10;75.50
75719;DHT22;64340;48.534;-3.036;2023-07-29T04:02:31;21.10;75.50
75719;DHT22;64340;48.534;-3.036;2023-07-29T04:04:56;21.10;75.60
75719;DHT22;64340;48.534;-3.036;2023-07-29T04:07:22;21.10;75.50
75719;DHT22;64340;48.534;-3.036;2023-07-29T04:09:47;21.10;75.60
75719;DHT22;64340;48.534;-3.036;2023-07-29T04:12:14;21.10;75.60
75719;DHT22;64340;48.534;-3.036;2023-07-29T04:14:40;21.10;75.50
75719;DHT22;64340;48.534;-3.036;2023-07-29T04:17:05;21.10;75.60
75719;DHT22;64340;48.534;-3.036;2023-07-29T04:19:31;21.10;75.50
75719;DHT22;64340;48.534;-3.036;2023-07-29T04:21:57;21.10;75.60
75719;DHT22;64340;48.534;-3.036;2023-07-29T04:24:22;21.10;75.50
75719;DHT22;64340;48.534;-3.036;2023-07-29T04:26:48;21.10;75.40
75719;DHT22;64340;48.534;-3.036;2023-07-29T04:29:14;21.10;75.50
75719;DHT22;64340;48.534;-3.036;2023-07-29T04:31:40;21.10;75.50
75719;DHT22;64340;48.534;-3.036;2023-07-29T04:34:05;21.10;75.50
75719;DHT22;64340;48.534;-3.036;2023-07-29T04:36:31;21.10;75.50
75719;DHT22;64340;48.534;-3.036;2023-07-29T04:38:57;21.00;75.50
75719;DHT22;64340;48.534;-3.036;2023-07-29T04:41:22;21.10;75.50
75719;DHT22;64340;48.534;-3.036;2023-07-29T04:43:48;21.00;75.40
75719;DHT22;64340;48.534;-3.036;2023-07-29T04:46:15;21.10;75.40
75719;DHT22;64340;48.534;-3.036;2023-07-29T04:48:40;21.00;75.40
75719;DHT22;64340;48.534;-3.036;2023-07-29T04:51:06;21.00;75.50
75719;DHT22;64340;48.534;-3.036;2023-07-29T04:53:31;21.10;75.50
75719;DHT22;64340;48.534;-3.036;2023-07-29T04:55:57;21.10;75.50
75719;DHT22;64340;48.534;-3.036;2023-07-29T04:58:23;21.10;75.50
75719;DHT22;64340;48.534;-3.036;2023-07-29T05:00:48;21.10;75.50
75719;DHT22;64340;48.534;-3.036;2023-07-29T05:03:14;21.10;75.60
75719;DHT22;64340;48.534;-3.036;2023-07-29T05:05:39;21.00;75.30
75719;DHT22;64340;48.534;-3.036;2023-07-29T05:08:05;21.00;75.40
75719;DHT22;64340;48.534;-3.036;2023-07-29T05:10:30;21.00;75.50
75719;DHT22;64340;48.534;-3.036;2023-07-29T05:12:56;21.00;75.40
75719;DHT22;64340;48.534;-3.036;2023-07-29T05:15:21;21.00;75.40
75719;DHT22;64340;48.534;-3.036;2023-07-29T05:17:47;21.00;75.30
75719;DHT22;64340;48.534;-3.036;2023-07-29T05:20:13;21.00;75.30
75719;DHT22;64340;48.534;-3.036;2023-07-29T05:22:38;21.00;75.30
75719;DHT22;64340;48.534;-3.036;2023-07-29T05:25:04;21.00;75.20
75719;DHT22;64340;48.534;-3.036;2023-07-29T05:27:30;21.00;75.30
75719;DHT22;64340;48.534;-3.036;2023-07-29T05:29:55;21.00;75.20
75719;DHT22;64340;48.534;-3.036;2023-07-29T05:32:21;21.00;75.20
75719;DHT22;64340;48.534;-3.036;2023-07-29T05:34:46;21.00;75.20
75719;DHT22;64340;48.534;-3.036;2023-07-29T05:37:12;21.00;75.10
75719;DHT22;64340;48.534;-3.036;2023-07-29T05:39:38;21.00;75.10
75719;DHT22;64340;48.534;-3.036;2023-07-29T05:42:03;21.00;75.00
75719;DHT22;64340;48.534;-3.036;2023-07-29T05:44:29;21.00;75.00
75719;DHT22;64340;48.534;-3.036;2023-07-29T05:46:56;21.00;75.00
75719;DHT22;64340;48.534;-3.036;2023-07-29T05:49:21;21.00;75.00
75719;DHT22;64340;48.534;-3.036;2023-07-29T05:51:47;21.00;75.00
75719;DHT22;64340;48.534;-3.036;2023-07-29T05:54:12;21.10;74.90
75719;DHT22;64340;48.534;-3.036;2023-07-29T05:56:38;21.00;74.90
75719;DHT22;64340;48.534;-3.036;2023-07-29T05:59:03;21.00;74.80
75719;DHT22;64340;48.534;-3.036;2023-07-29T06:01:29;21.10;75.10
75719;DHT22;64340;48.534;-3.036;2023-07-29T06:03:55;21.10;75.00
75719;DHT22;64340;48.534;-3.036;2023-07-29T06:06:20;21.10;74.80
75719;DHT22;64340;48.534;-3.036;2023-07-29T06:08:48;21.10;74.30
75719;DHT22;64340;48.534;-3.036;2023-07-29T06:11:14;21.10;74.30
75719;DHT22;64340;48.534;-3.036;2023-07-29T06:13:40;21.10;74.60
75719;DHT22;64340;48.534;-3.036;2023-07-29T06:16:05;21.10;74.70
75719;DHT22;64340;48.534;-3.036;2023-07-29T06:18:31;21.10;74.60
75719;DHT22;64340;48.534;-3.036;2023-07-29T06:20:56;21.10;74.00
75719;DHT22;64340;48.534;-3.036;2023-07-29T06:23:22;21.10;74.40
75719;DHT22;64340;48.534;-3.036;2023-07-29T06:25:48;21.10;74.30
75719;DHT22;64340;48.534;-3.036;2023-07-29T06:28:13;21.10;74.40
75719;DHT22;64340;48.534;-3.036;2023-07-29T06:30:39;21.10;74.40
75719;DHT22;64340;48.534;-3.036;2023-07-29T06:33:04;21.10;74.60
75719;DHT22;64340;48.534;-3.036;2023-07-29T06:35:30;21.10;74.30
75719;DHT22;64340;48.534;-3.036;2023-07-29T06:37:56;21.10;74.60
75719;DHT22;64340;48.534;-3.036;2023-07-29T06:40:21;21.10;74.90
75719;DHT22;64340;48.534;-3.036;2023-07-29T06:42:47;21.10;74.60
75719;DHT22;64340;48.534;-3.036;2023-07-29T06:45:12;21.10;73.00
75719;DHT22;64340;48.534;-3.036;2023-07-29T06:47:38;21.00;73.20
75719;DHT22;64340;48.534;-3.036;2023-07-29T06:50:04;20.90;72.70
75719;DHT22;64340;48.534;-3.036;2023-07-29T06:52:29;20.80;73.00
75719;DHT22;64340;48.534;-3.036;2023-07-29T06:54:55;20.70;72.90
75719;DHT22;64340;48.534;-3.036;2023-07-29T06:57:21;20.70;72.50
75719;DHT22;64340;48.534;-3.036;2023-07-29T06:59:46;20.70;72.90
75719;DHT22;64340;48.534;-3.036;2023-07-29T07:02:12;20.60;72.50
75719;DHT22;64340;48.534;-3.036;2023-07-29T07:04:37;20.60;72.60
75719;DHT22;64340;48.534;-3.036;2023-07-29T07:07:03;20.50;72.20
75719;DHT22;64340;48.534;-3.036;2023-07-29T07:09:29;20.60;72.90
75719;DHT22;64340;48.534;-3.036;2023-07-29T07:11:54;20.70;73.00
75719;DHT22;64340;48.534;-3.036;2023-07-29T07:14:20;20.80;72.90
75719;DHT22;64340;48.534;-3.036;2023-07-29T07:16:46;20.80;72.80
75719;DHT22;64340;48.534;-3.036;2023-07-29T07:19:11;20.90;72.80
75719;DHT22;64340;48.534;-3.036;2023-07-29T07:21:37;20.90;72.70
75719;DHT22;64340;48.534;-3.036;2023-07-29T07:24:02;21.00;72.60
75719;DHT22;64340;48.534;-3.036;2023-07-29T07:26:28;21.00;72.60
75719;DHT22;64340;48.534;-3.036;2023-07-29T07:28:53;21.00;72.60
75719;DHT22;64340;48.534;-3.036;2023-07-29T07:31:19;21.00;72.60
75719;DHT22;64340;48.534;-3.036;2023-07-29T07:33:45;21.00;72.60
75719;DHT22;64340;48.534;-3.036;2023-07-29T07:36:10;21.00;72.50
75719;DHT22;64340;48.534;-3.036;2023-07-29T07:38:36;21.10;72.60
75719;DHT22;64340;48.534;-3.036;2023-07-29T07:41:02;21.10;72.70
75719;DHT22;64340;48.534;-3.036;2023-07-29T07:43:27;21.10;72.60
75719;DHT22;64340;48.534;-3.036;2023-07-29T07:46:00;21.10;72.70
75719;DHT22;64340;48.534;-3.036;2023-07-29T07:48:26;21.10;72.70
75719;DHT22;64340;48.534;-3.036;2023-07-29T07:50:52;21.10;72.80
75719;DHT22;64340;48.534;-3.036;2023-07-29T07:53:18;21.10;72.80
75719;DHT22;64340;48.534;-3.036;2023-07-29T07:55:45;21.10;72.60
75719;DHT22;64340;48.534;-3.036;2023-07-29T07:58:10;21.10;72.60
75719;DHT22;64340;48.534;-3.036;2023-07-29T08:00:36;21.20;72.70
75719;DHT22;64340;48.534;-3.036;2023-07-29T08:03:02;21.20;72.80
75719;DHT22;64340;48.534;-3.036;2023-07-29T08:05:27;21.20;72.80
75719;DHT22;64340;48.534;-3.036;2023-07-29T08:07:53;21.30;72.80
75719;DHT22;64340;48.534;-3.036;2023-07-29T08:10:19;21.30;72.70
75719;DHT22;64340;48.534;-3.036;2023-07-29T08:12:44;21.30;72.60
75719;DHT22;64340;48.534;-3.036;2023-07-29T08:15:10;21.30;72.70
75719;DHT22;64340;48.534;-3.036;2023-07-29T08:17:35;21.30;72.70
75719;DHT22;64340;48.534;-3.036;2023-07-29T08:20:01;21.40;72.70
75719;DHT22;64340;48.534;-3.036;2023-07-29T08:22:26;21.40;72.70
75719;DHT22;64340;48.534;-3.036;2023-07-29T08:24:52;21.40;72.70
75719;DHT22;64340;48.534;-3.036;2023-07-29T08:27:18;21.40;72.70
75719;DHT22;64340;48.534;-3.036;2023-07-29T08:29:43;21.40;72.60
75719;DHT22;64340;48.534;-3.036;2023-07-29T08:32:09;21.40;72.60
75719;DHT22;64340;48.534;-3.036;2023-07-29T08:34:34;21.40;72.60
75719;DHT22;64340;48.534;-3.036;2023-07-29T08:37:00;21.40;72.70
75719;DHT22;64340;48.534;-3.036;2023-07-29T08:39:25;21.40;72.70
75719;DHT22;64340;48.534;-3.036;2023-07-29T08:42:03;21.50;72.60
75719;DHT22;64340;48.534;-3.036;2023-07-29T08:44:35;21.50;72.70
75719;DHT22;64340;48.534;-3.036;2023-07-29T08:47:02;21.50;72.70
75719;DHT22;64340;48.534;-3.036;2023-07-29T08:49:27;21.50;72.70
75719;DHT22;64340;48.534;-3.036;2023-07-29T08:51:54;21.50;72.70
75719;DHT22;64340;48.534;-3.036;2023-07-29T08:54:20;21.50;72.70
75719;DHT22;64340;48.534;-3.036;2023-07-29T08:56:45;21.50;72.60
75719;DHT22;64340;48.534;-3.036;2023-07-29T08:59:12;21.50;72.60
75719;DHT22;64340;48.534;-3.036;2023-07-29T09:01:39;21.50;72.60
75719;DHT22;64340;48.534;-3.036;2023-07-29T09:04:05;21.60;72.40
75719;DHT22;64340;48.534;-3.036;2023-07-29T09:06:31;21.60;72.30
75719;DHT22;64340;48.534;-3.036;2023-07-29T09:08:56;21.60;72.20
75719;DHT22;64340;48.534;-3.036;2023-07-29T09:11:23;21.70;72.20
75719;DHT22;64340;48.534;-3.036;2023-07-29T09:13:49;21.70;72.30
75719;DHT22;64340;48.534;-3.036;2023-07-29T09:16:15;21.70;72.20
75719;DHT22;64340;48.534;-3.036;2023-07-29T09:18:40;21.70;72.20
75719;DHT22;64340;48.534;-3.036;2023-07-29T09:21:06;21.70;72.00
75719;DHT22;64340;48.534;-3.036;2023-07-29T09:23:39;21.70;72.00
75719;DHT22;64340;48.534;-3.036;2023-07-29T09:26:05;21.70;72.00
75719;DHT22;64340;48.534;-3.036;2023-07-29T09:28:35;21.70;72.00
75719;DHT22;64340;48.534;-3.036;2023-07-29T09:31:01;21.70;72.00
75719;DHT22;64340;48.534;-3.036;2023-07-29T09:33:27;21.80;71.90
75719;DHT22;64340;48.534;-3.036;2023-07-29T09:35:53;21.80;72.00
75719;DHT22;64340;48.534;-3.036;2023-07-29T09:38:25;21.70;72.10
75719;DHT22;64340;48.534;-3.036;2023-07-29T09:40:51;21.80;72.00
75719;DHT22;64340;48.534;-3.036;2023-07-29T09:43:19;21.70;72.00
75719;DHT22;64340;48.534;-3.036;2023-07-29T09:45:51;21.70;72.00
75719;DHT22;64340;48.534;-3.036;2023-07-29T09:48:17;21.80;72.10
75719;DHT22;64340;48.534;-3.036;2023-07-29T09:50:44;21.80;72.10
75719;DHT22;64340;48.534;-3.036;2023-07-29T09:53:12;21.80;72.10
75719;DHT22;64340;48.534;-3.036;2023-07-29T09:55:38;21.70;72.00
75719;DHT22;64340;48.534;-3.036;2023-07-29T09:58:03;21.80;72.10
75719;DHT22;64340;48.534;-3.036;2023-07-29T10:00:33;21.90;72.00
75719;DHT22;64340;48.534;-3.036;2023-07-29T10:03:00;21.90;72.00
75719;DHT22;64340;48.534;-3.036;2023-07-29T10:05:26;21.90;71.90
75719;DHT22;64340;48.534;-3.036;2023-07-29T10:07:52;21.90;71.90
75719;DHT22;64340;48.534;-3.036;2023-07-29T10:10:18;21.90;71.80
75719;DHT22;64340;48.534;-3.036;2023-07-29T10:12:45;21.90;71.80
75719;DHT22;64340;48.534;-3.036;2023-07-29T10:15:11;21.90;71.70
75719;DHT22;64340;48.534;-3.036;2023-07-29T10:17:37;21.90;71.80
75719;DHT22;64340;48.534;-3.036;2023-07-29T10:20:04;21.90;71.80
75719;DHT22;64340;48.534;-3.036;2023-07-29T10:22:33;21.90;71.70
75719;DHT22;64340;48.534;-3.036;2023-07-29T10:24:59;21.90;71.80
75719;DHT22;64340;48.534;-3.036;2023-07-29T10:27:28;21.90;71.80
75719;DHT22;64340;48.534;-3.036;2023-07-29T10:29:55;21.90;71.80
75719;DHT22;64340;48.534;-3.036;2023-07-29T10:32:21;21.90;71.80
75719;DHT22;64340;48.534;-3.036;2023-07-29T10:34:49;21.90;71.70
75719;DHT22;64340;48.534;-3.036;2023-07-29T10:37:14;22.00;71.80
75719;DHT22;64340;48.534;-3.036;2023-07-29T10:39:40;22.00;71.70
75719;DHT22;64340;48.534;-3.036;2023-07-29T10:42:06;22.00;71.70
75719;DHT22;64340;48.534;-3.036;2023-07-29T10:44:51;22.00;71.60
75719;DHT22;64340;48.534;-3.036;2023-07-29T10:47:18;22.00;71.60
75719;DHT22;64340;48.534;-3.036;2023-07-29T10:49:44;22.00;71.50
75719;DHT22;64340;48.534;-3.036;2023-07-29T10:52:14;22.00;71.60
75719;DHT22;64340;48.534;-3.036;2023-07-29T10:54:44;22.00;71.60
75719;DHT22;64340;48.534;-3.036;2023-07-29T10:57:13;22.00;71.60
75719;DHT22;64340;48.534;-3.036;2023-07-29T10:59:39;21.90;71.60
75719;DHT22;64340;48.534;-3.036;2023-07-29T11:02:12;21.90;71.70
75719;DHT22;64340;48.534;-3.036;2023-07-29T11:04:58;21.90;71.70
75719;DHT22;64340;48.534;-3.036;2023-07-29T11:07:27;21.90;71.80
75719;DHT22;64340;48.534;-3.036;2023-07-29T11:09:54;21.90;71.80
75719;DHT22;64340;48.534;-3.036;2023-07-29T11:12:37;21.90;71.80
75719;DHT22;64340;48.534;-3.036;2023-07-29T11:17:35;21.90;71.80
75719;DHT22;64340;48.534;-3.036;2023-07-29T11:20:01;21.90;71.90
75719;DHT22;64340;48.534;-3.036;2023-07-29T11:22:27;21.90;71.80
75719;DHT22;64340;48.534;-3.036;2023-07-29T11:24:53;21.90;71.80
75719;DHT22;64340;48.534;-3.036;2023-07-29T11:27:19;21.90;71.80
75719;DHT22;64340;48.534;-3.036;2023-07-29T11:29:44;21.90;71.70
75719;DHT22;64340;48.534;-3.036;2023-07-29T11:32:10;21.90;71.70
75719;DHT22;64340;48.534;-3.036;2023-07-29T11:34:35;21.90;71.60
75719;DHT22;64340;48.534;-3.036;2023-07-29T11:37:01;22.00;71.60
75719;DHT22;64340;48.534;-3.036;2023-07-29T11:39:27;22.00;71.60
75719;DHT22;64340;48.534;-3.036;2023-07-29T11:41:52;22.00;71.60
75719;DHT22;64340;48.534;-3.036;2023-07-29T11:44:18;21.90;71.60
75719;DHT22;64340;48.534;-3.036;2023-07-29T11:46:44;21.90;71.70
75719;DHT22;64340;48.534;-3.036;2023-07-29T11:49:09;21.90;71.70
75719;DHT22;64340;48.534;-3.036;2023-07-29T11:51:38;21.90;71.70
75719;DHT22;64340;48.534;-3.036;2023-07-29T11:54:03;21.90;71.70
75719;DHT22;64340;48.534;-3.036;2023-07-29T11:56:30;21.90;71.50
75719;DHT22;64340;48.534;-3.036;2023-07-29T11:58:56;21.90;71.60
75719;DHT22;64340;48.534;-3.036;2023-07-29T12:01:22;21.90;71.60
75719;DHT22;64340;48.534;-3.036;2023-07-29T12:03:48;21.90;71.50
75719;DHT22;64340;48.534;-3.036;2023-07-29T12:06:14;21.90;71.50
75719;DHT22;64340;48.534;-3.036;2023-07-29T12:08:39;22.00;71.40
75719;DHT22;64340;48.534;-3.036;2023-07-29T12:11:05;22.00;71.40
75719;DHT22;64340;48.534;-3.036;2023-07-29T12:13:32;22.00;71.40
75719;DHT22;64340;48.534;-3.036;2023-07-29T12:16:01;22.00;71.40
75719;DHT22;64340;48.534;-3.036;2023-07-29T12:18:30;22.00;71.40
75719;DHT22;64340;48.534;-3.036;2023-07-29T12:20:56;22.10;71.40
75719;DHT22;64340;48.534;-3.036;2023-07-29T12:23:25;22.00;71.30
75719;DHT22;64340;48.534;-3.036;2023-07-29T12:25:59;22.00;71.40
75719;DHT22;64340;48.534;-3.036;2023-07-29T12:28:25;22.00;71.40
75719;DHT22;64340;48.534;-3.036;2023-07-29T12:30:57;22.00;71.50
75719;DHT22;64340;48.534;-3.036;2023-07-29T12:33:30;22.00;71.50
75719;DHT22;64340;48.534;-3.036;2023-07-29T12:35:56;22.00;71.60
75719;DHT22;64340;48.534;-3.036;2023-07-29T12:38:21;22.00;71.60
75719;DHT22;64340;48.534;-3.036;2023-07-29T12:40:47;22.00;71.50
75719;DHT22;64340;48.534;-3.036;2023-07-29T12:43:13;22.00;71.50
75719;DHT22;64340;48.534;-3.036;2023-07-29T12:45:38;22.00;71.50
75719;DHT22;64340;48.534;-3.036;2023-07-29T12:48:07;22.10;71.40
75719;DHT22;64340;48.534;-3.036;2023-07-29T12:50:32;22.10;71.50
75719;DHT22;64340;48.534;-3.036;2023-07-29T12:52:58;22.00;70.90
75719;DHT22;64340;48.534;-3.036;2023-07-29T12:55:24;22.00;71.20
75719;DHT22;64340;48.534;-3.036;2023-07-29T12:57:49;22.10;71.20
75719;DHT22;64340;48.534;-3.036;2023-07-29T13:00:15;22.10;71.20
75719;DHT22;64340;48.534;-3.036;2023-07-29T13:02:41;22.10;70.70
75719;DHT22;64340;48.534;-3.036;2023-07-29T13:05:08;22.10;70.90
75719;DHT22;64340;48.534;-3.036;2023-07-29T13:07:35;22.00;71.20
75719;DHT22;64340;48.534;-3.036;2023-07-29T13:10:00;22.10;71.20
75719;DHT22;64340;48.534;-3.036;2023-07-29T13:12:26;22.10;71.20
75719;DHT22;64340;48.534;-3.036;2023-07-29T13:14:51;22.10;71.40
75719;DHT22;64340;48.534;-3.036;2023-07-29T13:17:17;22.10;71.50
75719;DHT22;64340;48.534;-3.036;2023-07-29T13:19:43;22.00;71.60
75719;DHT22;64340;48.534;-3.036;2023-07-29T13:22:08;22.00;71.60
75719;DHT22;64340;48.534;-3.036;2023-07-29T13:24:34;22.00;71.60
75719;DHT22;64340;48.534;-3.036;2023-07-29T13:26:59;22.00;71.50
75719;DHT22;64340;48.534;-3.036;2023-07-29T13:29:25;22.00;71.60
75719;DHT22;64340;48.534;-3.036;2023-07-29T13:31:50;22.00;71.50
75719;DHT22;64340;48.534;-3.036;2023-07-29T13:34:16;22.00;71.40
75719;DHT22;64340;48.534;-3.036;2023-07-29T13:36:42;22.00;71.50
75719;DHT22;64340;48.534;-3.036;2023-07-29T13:39:07;22.00;71.40
75719;DHT22;64340;48.534;-3.036;2023-07-29T13:41:33;22.00;71.40
75719;DHT22;64340;48.534;-3.036;2023-07-29T13:43:58;22.00;71.50
75719;DHT22;64340;48.534;-3.036;2023-07-29T13:46:24;22.00;71.40
75719;DHT22;64340;48.534;-3.036;2023-07-29T13:48:50;22.00;71.40
75719;DHT22;64340;48.534;-3.036;2023-07-29T13:51:16;22.10;71.20
75719;DHT22;64340;48.534;-3.036;2023-07-29T13:53:46;22.00;71.10
75719;DHT22;64340;48.534;-3.036;2023-07-29T13:56:12;22.00;71.10
75719;DHT22;64340;48.534;-3.036;2023-07-29T13:58:38;22.00;71.00
75719;DHT22;64340;48.534;-3.036;2023-07-29T14:01:04;22.10;71.10
75719;DHT22;64340;48.534;-3.036;2023-07-29T14:03:29;22.00;71.10
75719;DHT22;64340;48.534;-3.036;2023-07-29T14:05:55;22.10;71.10
75719;DHT22;64340;48.534;-3.036;2023-07-29T14:08:21;22.10;71.00
75719;DHT22;64340;48.534;-3.036;2023-07-29T14:10:48;22.00;71.00
75719;DHT22;64340;48.534;-3.036;2023-07-29T14:13:14;22.00;71.10
75719;DHT22;64340;48.534;-3.036;2023-07-29T14:15:39;22.00;71.20
75719;DHT22;64340;48.534;-3.036;2023-07-29T14:18:05;22.00;71.20
75719;DHT22;64340;48.534;-3.036;2023-07-29T14:20:32;21.90;71.30
75719;DHT22;64340;48.534;-3.036;2023-07-29T14:22:57;21.90;71.30
75719;DHT22;64340;48.534;-3.036;2023-07-29T14:25:23;21.90;71.30
75719;DHT22;64340;48.534;-3.036;2023-07-29T14:27:49;21.90;71.30
75719;DHT22;64340;48.534;-3.036;2023-07-29T14:30:14;21.90;71.20
75719;DHT22;64340;48.534;-3.036;2023-07-29T14:32:40;21.90;71.20
75719;DHT22;64340;48.534;-3.036;2023-07-29T14:35:06;21.90;71.10
75719;DHT22;64340;48.534;-3.036;2023-07-29T14:37:33;21.90;71.00
75719;DHT22;64340;48.534;-3.036;2023-07-29T14:39:58;22.00;71.00
75719;DHT22;64340;48.534;-3.036;2023-07-29T14:42:24;21.90;69.20
75719;DHT22;64340;48.534;-3.036;2023-07-29T14:44:50;21.90;70.00
75719;DHT22;64340;48.534;-3.036;2023-07-29T14:47:15;21.90;70.60
75719;DHT22;64340;48.534;-3.036;2023-07-29T14:49:41;22.00;70.50
75719;DHT22;64340;48.534;-3.036;2023-07-29T14:52:07;22.00;70.40
75719;DHT22;64340;48.534;-3.036;2023-07-29T14:54:32;21.70;70.10
75719;DHT22;64340;48.534;-3.036;2023-07-29T14:56:58;21.60;71.00
75719;DHT22;64340;48.534;-3.036;2023-07-29T14:59:24;21.70;71.10
75719;DHT22;64340;48.534;-3.036;2023-07-29T15:01:49;21.70;70.90
75719;DHT22;64340;48.534;-3.036;2023-07-29T15:04:15;21.70;70.90
75719;DHT22;64340;48.534;-3.036;2023-07-29T15:06:41;21.90;70.80
75719;DHT22;64340;48.534;-3.036;2023-07-29T15:09:07;21.90;70.90
75719;DHT22;64340;48.534;-3.036;2023-07-29T15:11:33;21.80;70.70
75719;DHT22;64340;48.534;-3.036;2023-07-29T15:13:59;21.70;70.90
75719;DHT22;64340;48.534;-3.036;2023-07-29T15:16:24;21.80;70.90